Time;durP1;ratioP1;P1;durP2;ratioP2;P2;SDS_P1;SDS_P2;PMS_P1;PMS_P2;Temp;Humidity;BMP_temperature;BMP_pressure;BME280_temperature;BME280_humidity;BME280_pressure;Samples;Min_cycle;Max_cycle;Signal;HPM_P1;HPM_P2
2022/07/06 00:00:17;;;;;;;2.93;1.30;;;16.70;1.40;;;17.82;100.00;95869.60;647044;216;31632;-77
2022/07/06 00:02:59;;;;;;;0.90;0.90;;;16.40;1.40;;;17.74;100.00;95871.28;646110;213;31489;-76
2022/07/06 00:05:40;;;;;;;0.77;0.77;;;16.40;1.40;;;17.59;100.00;95870.98;647423;212;31561;-77
2022/07/06 00:08:22;;;;;;;1.80;0.93;;;16.40;1.40;;;17.58;100.00;95873.97;619862;222;31826;-77
2022/07/06 00:11:04;;;;;;;1.20;1.00;;;16.40;1.40;;;17.62;100.00;95873.20;647237;212;31535;-77
2022/07/06 00:13:46;;;;;;;1.05;1.00;;;16.40;1.40;;;17.66;100.00;95873.15;648743;212;31649;-77
2022/07/06 00:16:33;;;;;;;1.20;1.10;;;16.40;1.40;;;17.58;100.00;95864.88;641896;217;31517;-77
2022/07/06 00:19:21;;;;;;;1.00;0.90;;;16.40;1.40;;;17.45;100.00;95867.38;646173;216;32040;-77
2022/07/06 00:22:03;;;;;;;1.17;0.97;;;16.20;1.40;;;17.51;100.00;95871.59;620029;222;31937;-77
2022/07/06 00:24:46;;;;;;;2.53;0.80;;;16.20;1.40;;;17.58;100.00;95875.99;618850;222;31853;-76
2022/07/06 00:27:28;;;;;;;1.27;1.10;;;16.20;1.40;;;17.63;100.00;95872.06;647063;212;32270;-76
2022/07/06 00:30:15;;;;;;;1.10;0.90;;;16.30;1.40;;;17.59;100.00;95873.04;648124;212;31608;-77
2022/07/06 00:35:52;;;;;;;1.58;0.98;;;16.10;1.40;;;17.39;100.00;95870.80;619599;226;31918;-77
2022/07/06 00:38:36;;;;;;;1.27;1.02;;;16.10;1.40;;;17.35;100.00;95873.17;647604;212;42152;-77
2022/07/06 00:41:18;;;;;;;1.02;1.00;;;16.20;1.40;;;17.33;100.00;95875.30;646379;212;31479;-77
2022/07/06 00:44:00;;;;;;;2.05;1.30;;;16.10;1.40;;;17.30;100.00;95868.55;620678;225;31957;-77
2022/07/06 00:46:41;;;;;;;0.95;0.90;;;16.10;1.40;;;17.29;100.00;95869.28;647712;212;31521;-77
2022/07/06 00:52:21;;;;;;;1.20;1.10;;;15.80;1.40;;;17.03;100.00;95864.48;619581;222;32108;-76
2022/07/06 00:55:03;;;;;;;1.60;1.30;;;15.70;1.40;;;16.95;100.00;95862.08;618740;222;31893;-76
2022/07/06 00:57:45;;;;;;;0.88;0.80;;;15.60;1.40;;;16.87;100.00;95858.48;620679;226;33037;-76
2022/07/06 01:00:27;;;;;;;1.05;0.98;;;15.70;1.40;;;16.84;100.00;95862.48;647173;212;31637;-76
2022/07/06 01:03:25;;;;;;;1.20;1.10;;;15.70;1.40;;;16.76;100.00;95859.80;646613;212;31605;-78
2022/07/06 01:06:07;;;;;;;0.80;0.80;;;15.60;1.40;;;16.70;100.00;95855.95;647698;212;31501;-79
2022/07/06 01:08:49;;;;;;;0.85;0.70;;;15.60;1.40;;;16.68;100.00;95856.51;619950;222;31821;-79
2022/07/06 01:11:30;;;;;;;0.80;0.80;;;15.50;1.40;;;16.58;100.00;95851.41;620450;222;31844;-78
2022/07/06 01:16:54;;;;;;;0.90;0.80;;;15.40;1.40;;;16.53;100.00;95848.22;620357;226;31945;-76
2022/07/06 01:19:36;;;;;;;1.42;0.70;;;15.50;1.40;;;16.50;100.00;95840.30;619763;222;31812;-78
2022/07/06 01:22:18;;;;;;;1.30;1.00;;;15.40;1.40;;;16.45;100.00;95836.93;648690;216;31793;-77
2022/07/06 01:25:00;;;;;;;0.75;0.65;;;15.20;1.40;;;16.31;100.00;95831.19;632077;221;31815;-76
2022/07/06 01:27:41;;;;;;;0.88;0.70;;;14.90;1.40;;;16.22;100.00;95829.08;646306;216;31487;-76
2022/07/06 01:30:23;;;;;;;0.80;0.70;;;14.90;1.40;;;16.16;100.00;95828.25;648090;213;31539;-76
2022/07/06 01:35:52;;;;;;;6.20;1.10;;;14.70;1.40;;;15.94;100.00;95830.64;620127;225;32390;-76
2022/07/06 01:38:33;;;;;;;0.90;0.80;;;14.70;1.40;;;15.86;100.00;95830.54;646687;216;31578;-76
2022/07/06 01:41:15;;;;;;;1.00;0.90;;;14.60;1.40;;;15.81;100.00;95824.47;620522;226;31955;-76
2022/07/06 01:44:00;;;;;;;0.88;0.80;;;14.70;1.40;;;15.91;100.00;95831.16;618952;226;31825;-76
2022/07/06 01:46:42;;;;;;;1.90;0.73;;;14.90;1.40;;;15.88;100.00;95835.47;646784;216;31570;-77
2022/07/06 01:49:23;;;;;;;0.70;0.70;;;14.80;1.40;;;15.91;100.00;95838.43;646312;216;31552;-76
2022/07/06 01:52:05;;;;;;;0.70;0.70;;;14.70;1.40;;;15.74;100.00;95836.17;646436;216;31484;-77
2022/07/06 01:57:22;;;;;;;0.73;0.63;;;14.30;1.40;;;15.50;100.00;95838.83;620176;226;31847;-76
2022/07/06 02:00:03;;;;;;;0.85;0.77;;;14.10;1.40;;;15.38;100.00;95834.42;647943;216;31570;-77
2022/07/06 02:02:45;;;;;;;1.85;1.00;;;14.10;1.40;;;15.28;100.00;95830.47;646683;216;31497;-76
2022/07/06 02:05:27;;;;;;;0.70;0.65;;;14.00;1.40;;;15.25;100.00;95828.89;646310;216;31606;-76
2022/07/06 02:08:08;;;;;;;1.90;0.70;;;14.00;1.40;;;15.27;100.00;95828.11;619224;226;31811;-77
2022/07/06 02:10:50;;;;;;;2.30;1.00;;;14.10;1.40;;;15.25;100.00;95826.72;646748;216;31481;-77
2022/07/06 02:13:33;;;;;;;1.30;0.88;;;14.20;1.40;;;15.30;100.00;95828.34;646529;212;31625;-76
2022/07/06 02:16:15;;;;;;;0.90;0.90;;;14.20;1.40;;;15.27;100.00;95827.13;646667;212;31497;-77
2022/07/06 02:19:00;;;;;;;0.50;0.50;;;14.20;1.40;;;15.30;100.00;95834.56;646569;212;31499;-76
2022/07/06 02:21:42;;;;;;;1.00;0.90;;;14.20;1.40;;;15.30;100.00;95833.16;619797;222;32354;-76
2022/07/06 02:24:24;;;;;;;0.80;0.80;;;14.30;1.40;;;15.31;100.00;95832.78;646887;212;31619;-76
2022/07/06 02:27:06;;;;;;;0.80;0.80;;;14.20;1.40;;;15.29;100.00;95837.55;647013;212;31807;-76
2022/07/06 02:29:48;;;;;;;0.70;0.70;;;14.20;1.40;;;15.30;100.00;95841.41;643596;216;31478;-77
2022/07/06 02:32:29;;;;;;;1.30;0.80;;;14.30;1.40;;;15.28;100.00;95836.07;646876;213;31509;-76
2022/07/06 02:35:50;;;;;;;0.70;0.70;;;14.20;1.40;;;15.25;100.00;95832.98;645560;216;31662;-76
2022/07/06 02:38:34;;;;;;;1.10;0.80;;;14.20;1.40;;;15.21;100.00;95830.33;647283;216;31557;-77
2022/07/06 02:41:16;;;;;;;0.57;0.57;;;14.10;1.40;;;15.17;100.00;95834.48;620737;226;31842;-76
2022/07/06 02:44:03;;;;;;;1.10;0.60;;;14.10;1.40;;;15.11;100.00;95837.27;646196;216;31570;-76
2022/07/06 02:46:50;;;;;;;0.60;0.60;;;13.90;1.40;;;14.90;100.00;95838.76;646958;216;31503;-76
2022/07/06 02:49:34;;;;;;;0.60;0.50;;;13.70;1.40;;;14.79;100.00;95837.11;647080;216;31466;-76
2022/07/06 02:52:22;;;;;;;0.90;0.80;;;13.70;1.40;;;14.92;100.00;95836.31;643805;216;31630;-76
2022/07/06 02:55:06;;;;;;;0.80;0.80;;;13.90;1.40;;;14.93;100.00;95832.36;619859;226;31810;-76
2022/07/06 02:57:48;;;;;;;3.45;1.15;;;13.90;1.40;;;14.95;100.00;95836.22;620224;226;31821;-77
2022/07/06 03:00:30;;;;;;;1.40;1.30;;;14.00;1.40;;;14.97;100.00;95838.25;647428;216;31575;-76
2022/07/06 03:03:11;;;;;;;1.10;0.60;;;14.00;1.40;;;15.02;100.00;95840.05;647884;212;31476;-76
2022/07/06 03:05:53;;;;;;;0.85;0.80;;;13.90;1.40;;;15.02;100.00;95841.47;646614;216;31530;-77
2022/07/06 03:08:38;;;;;;;0.70;0.70;;;13.90;1.40;;;14.93;100.00;95846.83;619882;226;32353;-76
2022/07/06 03:11:19;;;;;;;0.90;0.80;;;13.90;1.40;;;14.93;100.00;95850.01;647597;216;31613;-77
2022/07/06 03:14:05;;;;;;;0.57;0.55;;;13.90;1.40;;;14.91;100.00;95854.59;648445;216;31607;-76
2022/07/06 03:16:52;;;;;;;0.80;0.80;;;13.90;1.40;;;14.89;100.00;95858.77;619977;226;32113;-76
2022/07/06 03:19:34;;;;;;;0.80;0.80;;;13.90;1.40;;;14.82;100.00;95862.40;619304;222;31867;-76
2022/07/06 03:22:16;;;;;;;1.08;0.70;;;13.90;1.40;;;14.79;100.00;95860.20;617912;222;32403;-77
2022/07/06 03:24:57;;;;;;;0.90;0.90;;;13.80;1.40;;;14.77;100.00;95860.93;647088;212;31588;-76
2022/07/06 03:27:39;;;;;;;3.92;0.90;;;13.70;1.40;;;14.75;100.00;95857.26;647276;216;31466;-76
2022/07/06 03:30:21;;;;;;;1.17;1.08;;;13.80;1.40;;;14.74;100.00;95854.84;647329;216;31556;-76
2022/07/06 03:35:53;;;;;;;0.88;0.88;;;13.70;1.40;;;14.74;100.00;95853.98;619865;226;32159;-76
2022/07/06 03:38:35;;;;;;;1.20;0.90;;;13.70;1.40;;;14.69;100.00;95853.68;645517;212;31759;-76
2022/07/06 03:41:19;;;;;;;0.70;0.68;;;13.70;1.40;;;14.73;100.00;95851.02;648074;216;31519;-76
2022/07/06 03:44:01;;;;;;;0.80;0.70;;;13.60;1.40;;;14.68;100.00;95850.92;646922;212;31538;-77
2022/07/06 03:46:42;;;;;;;1.00;0.80;;;13.70;1.40;;;14.67;100.00;95848.95;619729;226;31940;-77
2022/07/06 03:49:27;;;;;;;1.00;0.90;;;13.70;1.40;;;14.71;100.00;95847.30;646130;216;31477;-76
2022/07/06 03:52:08;;;;;;;0.80;0.80;;;13.70;1.40;;;14.73;100.00;95853.07;645825;216;31474;-76
2022/07/06 03:54:56;;;;;;;1.10;0.90;;;13.70;1.40;;;14.76;100.00;95855.83;646489;216;31520;-76
2022/07/06 03:57:43;;;;;;;0.77;0.70;;;13.80;1.40;;;14.79;100.00;95856.16;647394;216;32036;-76
2022/07/06 04:00:31;;;;;;;1.30;0.80;;;13.90;1.40;;;14.89;100.00;95855.70;646182;216;31532;-77
2022/07/06 04:03:13;;;;;;;1.10;1.00;;;13.90;1.40;;;14.92;100.00;95856.66;620026;226;32032;-78
2022/07/06 04:06:01;;;;;;;1.50;1.20;;;14.00;1.40;;;15.00;100.00;95853.03;646671;216;31593;-76
2022/07/06 04:08:42;;;;;;;2.00;1.10;;;14.00;1.40;;;15.08;100.00;95853.02;646311;212;31673;-76
2022/07/06 04:11:27;;;;;;;0.90;0.80;;;14.10;1.40;;;15.23;100.00;95858.40;646569;216;31489;-76
2022/07/06 04:14:15;;;;;;;0.98;0.98;;;14.20;1.40;;;15.42;100.00;95860.56;647055;216;31499;-76
2022/07/06 04:16:57;;;;;;;1.15;1.08;;;14.40;1.40;;;15.48;100.00;95864.25;618953;226;32097;-76
2022/07/06 04:19:38;;;;;;;2.60;1.00;;;14.50;1.40;;;15.59;100.00;95867.12;647882;216;31519;-76
2022/07/06 04:22:20;;;;;;;1.00;0.90;;;14.60;1.40;;;15.60;100.00;95870.75;646951;216;31576;-77
2022/07/06 04:25:08;;;;;;;1.10;0.90;;;14.60;1.40;;;15.69;100.00;95871.56;646094;215;31543;-76
2022/07/06 04:27:50;;;;;;;1.42;1.23;;;14.70;1.40;;;15.86;100.00;95875.59;646711;215;31516;-74
2022/07/06 04:30:31;;;;;;;1.20;1.10;;;14.90;1.40;;;15.98;100.00;95865.33;647714;216;31561;-74
2022/07/06 04:35:51;;;;;;;0.93;0.90;;;15.00;1.40;;;16.15;100.00;95869.47;646541;216;31507;-75
2022/07/06 04:38:36;;;;;;;1.20;1.10;;;15.00;1.40;;;16.20;100.00;95872.38;646226;216;31570;-76
2022/07/06 04:42:27;;;;;;;1.33;1.23;;;15.10;1.40;;;16.22;100.00;95872.25;646513;212;31535;-75
2022/07/06 04:45:11;;;;;;;1.10;0.95;;;15.10;1.40;;;16.26;100.00;95873.25;646580;216;31517;-75
2022/07/06 04:47:53;;;;;;;1.10;0.90;;;15.20;1.40;;;16.32;100.00;95878.94;647138;212;32102;-75
2022/07/06 04:50:35;;;;;;;1.00;0.90;;;15.30;1.40;;;16.39;100.00;95876.81;647707;212;31607;-76
2022/07/06 04:53:16;;;;;;;1.85;1.25;;;15.30;1.40;;;16.43;100.00;95878.73;645652;216;31767;-75
2022/07/06 04:55:58;;;;;;;0.80;0.80;;;15.40;1.40;;;16.46;100.00;95880.02;647061;216;31571;-74
2022/07/06 04:58:40;;;;;;;1.00;0.90;;;15.50;1.40;;;16.56;100.00;95873.22;646973;216;31518;-75
2022/07/06 05:01:22;;;;;;;1.20;1.10;;;15.50;1.40;;;16.65;100.00;95877.09;646259;216;31485;-74
2022/07/06 05:04:03;;;;;;;1.83;0.80;;;15.60;1.40;;;16.78;100.00;95875.77;646842;212;31622;-75
2022/07/06 05:06:45;;;;;;;1.50;1.40;;;15.80;1.40;;;16.87;100.00;95874.80;645719;216;31564;-74
2022/07/06 05:09:27;;;;;;;1.50;1.40;;;16.00;1.40;;;17.16;100.00;95877.42;620821;222;32003;-75
2022/07/06 05:12:10;;;;;;;1.10;1.00;;;16.10;1.40;;;17.35;100.00;95875.45;645264;216;31581;-75
2022/07/06 05:14:51;;;;;;;2.28;0.85;;;16.40;1.40;;;17.46;100.00;95875.81;646473;216;31557;-75
2022/07/06 05:17:33;;;;;;;1.65;0.70;;;16.50;1.40;;;17.57;100.00;95884.33;647600;212;31910;-75
2022/07/06 05:20:18;;;;;;;0.98;0.80;;;16.50;1.40;;;17.51;100.00;95885.08;646949;216;31473;-75
2022/07/06 05:22:59;;;;;;;4.28;1.10;;;16.40;1.40;;;17.38;100.00;95888.34;646525;212;31506;-74
2022/07/06 05:25:41;;;;;;;0.98;0.62;;;16.30;1.40;;;17.32;100.00;95889.46;646645;216;31684;-75
2022/07/06 05:28:23;;;;;;;1.17;0.80;;;16.30;1.40;;;17.31;100.00;95886.08;646232;216;31553;-75
2022/07/06 05:31:05;;;;;;;1.27;1.17;;;16.40;1.40;;;17.34;100.00;95885.66;646293;216;31708;-75
2022/07/06 05:35:51;;;;;;;1.10;1.00;;;16.40;1.40;;;17.45;100.00;95885.34;645534;216;42178;-75
2022/07/06 05:38:33;;;;;;;1.62;0.98;;;16.50;1.40;;;17.49;100.00;95890.08;646369;212;31552;-75
2022/07/06 05:41:15;;;;;;;1.15;1.05;;;16.50;1.40;;;17.59;100.00;95894.88;646440;216;31509;-75
2022/07/06 05:43:57;;;;;;;1.05;0.95;;;16.60;1.40;;;17.58;100.00;95898.94;645720;216;31698;-75
2022/07/06 05:46:45;;;;;;;0.90;0.70;;;16.70;1.40;;;17.66;100.00;95907.42;646882;216;31521;-74
2022/07/06 05:52:22;;;;;;;2.95;1.00;;;16.70;1.40;;;17.77;100.00;95907.03;618745;226;31819;-76
2022/07/06 05:55:06;;;;;;;2.10;1.30;;;16.80;1.40;;;17.77;100.00;95910.45;619333;222;31962;-75
2022/07/06 05:57:53;;;;;;;1.00;0.80;;;16.80;1.40;;;17.79;100.00;95913.34;647373;216;31498;-75
2022/07/06 06:03:08;;;;;;;1.13;0.90;;;16.90;1.40;;;17.72;100.00;95911.25;648171;216;31505;-79
2022/07/06 06:05:51;;;;;;;2.33;1.00;;;16.80;1.40;;;17.72;100.00;95915.57;647544;216;31560;-78
2022/07/06 06:08:33;;;;;;;1.10;0.93;;;16.80;1.40;;;17.78;100.00;95913.50;647286;212;31498;-79
2022/07/06 06:11:20;;;;;;;2.75;1.10;;;16.90;1.40;;;17.88;100.00;95917.83;646310;216;31617;-75
2022/07/06 06:14:02;;;;;;;1.10;1.00;;;16.90;1.40;;;18.03;100.00;95918.61;646351;216;31612;-76
2022/07/06 06:16:44;;;;;;;1.23;1.10;;;17.00;1.40;;;18.08;100.00;95919.19;646160;215;31507;-76
2022/07/06 06:19:29;;;;;;;1.98;1.20;;;17.10;1.40;;;18.09;100.00;95922.16;647329;216;31565;-75
2022/07/06 06:22:10;;;;;;;1.37;1.20;;;17.10;1.40;;;18.21;100.00;95930.80;618879;226;31860;-76
2022/07/06 06:24:52;;;;;;;2.00;1.10;;;17.10;1.40;;;18.26;100.00;95929.53;645915;212;32210;-75
2022/07/06 06:27:34;;;;;;;2.08;1.20;;;17.30;1.40;;;18.45;100.00;95929.89;645677;216;31832;-76
2022/07/06 06:30:15;;;;;;;0.88;0.88;;;17.50;1.40;;;18.39;100.00;95934.80;646929;212;31523;-75
2022/07/06 06:35:51;;;;;;;2.95;1.15;;;17.50;1.40;;;18.58;100.00;95933.89;618951;222;32361;-75
2022/07/06 06:38:33;;;;;;;1.00;1.00;;;17.60;1.40;;;18.55;100.00;95940.73;645857;216;31512;-75
2022/07/06 06:41:15;;;;;;;2.60;1.50;;;17.60;1.40;;;18.58;100.00;95936.19;646765;212;31514;-76
2022/07/06 06:43:56;;;;;;;1.12;1.02;;;17.60;1.40;;;18.61;100.00;95934.92;646377;216;31512;-75
2022/07/06 06:46:41;;;;;;;1.33;1.23;;;17.70;1.40;;;18.63;100.00;95932.46;645745;216;31670;-76
2022/07/06 06:49:23;;;;;;;2.40;1.85;;;17.80;1.40;;;18.73;100.00;95936.00;646671;216;31869;-76
2022/07/06 06:52:04;;;;;;;3.00;1.30;;;17.80;1.40;;;18.84;100.00;95933.56;646756;216;32217;-76
2022/07/06 06:54:46;;;;;;;2.97;1.42;;;17.90;1.40;;;18.84;100.00;95933.80;645431;216;31685;-75
2022/07/06 06:57:28;;;;;;;3.92;1.40;;;17.90;1.40;;;18.97;100.00;95934.13;646369;212;31558;-75
2022/07/06 07:00:10;;;;;;;2.60;1.02;;;18.00;1.40;;;18.88;100.00;95932.52;646577;212;31524;-75
2022/07/06 07:02:52;;;;;;;1.50;1.40;;;18.00;1.40;;;18.98;100.00;95926.88;646193;216;31596;-75
2022/07/06 07:05:34;;;;;;;2.00;1.30;;;18.00;1.40;;;19.04;100.00;95926.27;646770;216;31493;-75
2022/07/06 07:08:15;;;;;;;1.40;1.30;;;18.00;1.40;;;19.18;100.00;95929.35;646830;212;31741;-75
2022/07/06 07:10:57;;;;;;;2.65;1.70;;;18.20;1.40;;;19.30;100.00;95933.05;647011;216;31573;-75
2022/07/06 07:13:39;;;;;;;1.58;1.48;;;18.20;1.40;;;19.40;100.00;95936.19;646322;216;31647;-75
2022/07/06 07:16:20;;;;;;;1.60;1.33;;;18.50;1.40;;;19.69;100.00;95932.42;647071;216;31515;-75
2022/07/06 07:19:05;;;;;;;1.80;1.70;;;18.70;1.40;;;19.99;100.00;95928.41;646041;216;31525;-75
2022/07/06 07:21:47;;;;;;;1.40;1.17;;;19.00;1.40;;;20.23;100.00;95932.59;647427;216;42188;-75
2022/07/06 07:24:34;;;;;;;1.90;1.80;;;19.10;1.40;;;20.11;100.00;95934.13;620696;226;42488;-79
2022/07/06 07:27:22;;;;;;;1.40;1.30;;;18.90;1.40;;;19.89;100.00;95933.55;646884;216;31915;-75
2022/07/06 07:30:04;;;;;;;5.12;1.52;;;18.70;1.40;;;20.06;100.00;95929.22;620488;226;32045;-76
2022/07/06 07:32:49;;;;;;;3.55;1.70;;;19.00;1.40;;;20.25;100.00;95934.95;645919;216;31765;-76
2022/07/06 07:35:51;;;;;;;1.90;1.20;;;19.00;1.40;;;19.99;100.00;95933.49;646983;216;31410;-75
2022/07/06 07:38:35;;;;;;;2.00;1.30;;;19.00;1.40;;;20.18;100.00;95928.90;647737;216;31533;-76
2022/07/06 07:41:17;;;;;;;1.50;1.40;;;19.20;1.40;;;20.40;100.00;95924.75;646929;216;32515;-76
2022/07/06 07:43:59;;;;;;;1.37;1.27;;;19.40;1.40;;;20.75;100.00;95927.22;647060;216;31612;-75
2022/07/06 07:46:44;;;;;;;1.40;1.30;;;19.70;1.40;;;20.83;97.21;95927.23;645935;216;31549;-74
2022/07/06 07:49:25;;;;;;;3.55;1.48;;;19.70;1.40;;;20.95;95.56;95924.38;647161;212;31561;-76
2022/07/06 07:52:07;;;;;;;1.40;1.30;;;19.70;1.40;;;21.05;93.30;95923.77;646191;212;31633;-76
2022/07/06 07:54:49;;;;;;;1.90;1.40;;;19.70;1.40;;;21.17;94.28;95925.91;646224;216;31696;-76
2022/07/06 07:57:30;;;;;;;1.50;1.40;;;20.00;1.40;;;21.21;94.06;95928.37;646797;216;31552;-76
2022/07/06 08:00:14;;;;;;;1.98;1.20;;;20.00;1.40;;;21.38;93.06;95923.81;648099;216;31568;-76
2022/07/06 08:02:56;;;;;;;1.90;1.70;;;20.00;1.40;;;21.11;91.86;95926.95;646546;216;31522;-76
2022/07/06 08:05:41;;;;;;;1.33;1.23;;;20.00;1.40;;;21.14;89.57;95926.41;647407;212;32798;-76
2022/07/06 08:08:22;;;;;;;1.40;1.30;;;20.00;1.40;;;21.45;91.53;95923.65;647263;212;31983;-76
2022/07/06 08:11:04;;;;;;;1.70;1.60;;;20.20;1.40;;;21.70;91.87;95922.27;647472;216;31585;-75
2022/07/06 08:13:46;;;;;;;1.90;1.80;;;20.40;1.40;;;21.78;92.62;95921.85;646885;216;31569;-76
2022/07/06 08:16:28;;;;;;;2.50;1.70;;;20.50;1.40;;;21.56;91.61;95924.08;648443;212;31701;-76
2022/07/06 08:19:14;;;;;;;1.90;1.50;;;20.40;1.40;;;21.81;91.99;95926.23;645622;216;31646;-76
2022/07/06 08:21:55;;;;;;;1.50;1.40;;;20.50;1.40;;;21.92;91.69;95932.89;646648;212;31737;-76
2022/07/06 08:24:37;;;;;;;1.48;1.37;;;20.60;1.40;;;21.77;92.26;95932.33;647639;212;31537;-75
2022/07/06 08:27:22;;;;;;;2.17;1.60;;;20.50;1.40;;;21.79;93.22;95930.42;647135;212;42239;-76
2022/07/06 08:30:03;;;;;;;1.98;1.52;;;20.70;1.40;;;21.84;91.84;95931.35;647648;216;31816;-76
2022/07/06 08:32:45;;;;;;;2.15;1.95;;;20.70;1.40;;;21.97;91.25;95926.27;646916;216;31559;-75
2022/07/06 08:35:51;;;;;;;1.50;1.40;;;20.90;1.40;;;22.11;93.31;95929.45;645407;216;31669;-76
2022/07/06 08:38:33;;;;;;;3.92;1.70;;;21.00;1.40;;;22.27;91.37;95928.64;647394;216;32001;-75
2022/07/06 08:41:15;;;;;;;2.60;1.37;;;21.00;1.40;;;22.29;90.55;95925.39;647648;216;31862;-76
2022/07/06 08:43:57;;;;;;;1.90;1.55;;;21.20;1.40;;;22.25;92.16;95927.91;646794;212;31666;-76
2022/07/06 08:46:39;;;;;;;3.15;1.40;;;21.20;1.40;;;22.13;92.63;95931.83;646555;216;33068;-76
2022/07/06 08:49:20;;;;;;;2.30;2.10;;;21.00;1.40;;;22.27;89.37;95931.30;646114;216;42168;-76
2022/07/06 08:52:08;;;;;;;1.50;1.40;;;21.30;1.40;;;22.32;88.43;95935.81;644165;217;32079;-79
2022/07/06 08:54:56;;;;;;;1.98;1.80;;;21.30;1.40;;;22.52;88.35;95933.77;645796;212;31675;-76
2022/07/06 08:57:39;;;;;;;1.80;1.70;;;21.50;1.40;;;22.57;86.95;95934.80;618872;226;42770;-76
2022/07/06 09:00:19;;;;;;;1.90;1.80;;;21.40;1.40;;;23.03;84.29;95936.47;619478;226;31863;-76
2022/07/06 09:03:01;;;;;;;6.43;1.98;;;22.00;1.40;;;22.95;84.04;95937.41;646100;216;31569;-75
2022/07/06 09:05:43;;;;;;;1.80;1.70;;;21.90;1.40;;;22.91;83.40;95947.31;646122;216;31502;-75
2022/07/06 09:08:24;;;;;;;3.70;2.28;;;21.70;1.40;;;23.20;82.02;95949.25;647333;216;31724;-75
2022/07/06 09:11:05;;;;;;;1.90;1.80;;;22.10;1.40;;;23.93;80.84;95942.70;647213;212;31754;-76
2022/07/06 09:13:47;;;;;;;1.45;1.30;;;22.80;1.40;;;23.65;74.97;95941.75;646860;216;31649;-76
2022/07/06 09:16:29;;;;;;;1.50;1.40;;;22.70;1.40;;;24.21;78.66;95950.83;634118;220;31788;-76
2022/07/06 09:19:11;;;;;;;2.55;2.10;;;22.90;1.40;;;24.01;73.20;95953.27;646456;216;42306;-76
2022/07/06 09:21:54;;;;;;;2.03;1.42;;;22.80;1.40;;;23.74;73.61;95951.66;646401;216;31553;-76
2022/07/06 09:24:35;;;;;;;1.50;1.40;;;22.50;1.40;;;23.75;73.76;95951.11;647450;216;31856;-75
2022/07/06 09:27:17;;;;;;;1.53;1.40;;;22.50;1.40;;;24.72;74.18;95952.51;647610;212;32235;-76
2022/07/06 09:30:01;;;;;;;1.85;1.75;;;23.20;1.40;;;25.34;71.70;95952.12;646418;215;31711;-76
2022/07/06 09:32:42;;;;;;;3.00;1.95;;;23.70;1.40;;;25.77;69.02;95944.88;647262;216;31847;-76
2022/07/06 09:35:54;;;;;;;1.80;1.70;;;26.20;1.40;;;27.64;64.93;95948.68;645959;216;31692;-76
2022/07/06 09:38:33;;;;;;;1.75;1.65;;;26.90;1.40;;;27.29;61.53;95950.64;645677;212;31585;-76
2022/07/06 09:41:36;;;;;;;1.90;1.80;;;26.40;1.40;;;28.17;62.09;95948.07;648601;216;31527;-79
2022/07/06 09:44:20;;;;;;;1.40;1.30;;;26.70;1.40;;;27.34;60.27;95952.41;647911;212;31526;-79
2022/07/06 09:47:09;;;;;;;1.65;1.55;;;25.60;1.40;;;27.87;61.01;95955.48;647285;216;31591;-78
2022/07/06 09:49:50;;;;;;;1.75;1.65;;;27.10;1.40;;;28.80;56.34;95958.98;620486;225;32250;-76
2022/07/06 09:52:35;;;;;;;1.80;1.70;;;28.50;1.40;;;30.78;59.40;95945.85;619395;222;31897;-79
2022/07/06 09:55:22;;;;;;;2.08;1.98;;;27.70;1.40;;;32.63;52.62;95940.89;646798;216;42167;-77
2022/07/06 09:58:04;;;;;;;2.50;1.30;;;29.80;1.40;;;32.65;48.26;95942.45;647073;212;32139;-77
2022/07/06 10:00:46;;;;;;;2.22;1.45;;;29.00;1.40;;;33.32;49.95;95937.42;646153;216;32601;-75
2022/07/06 10:03:27;;;;;;;1.90;1.80;;;29.70;1.40;;;31.90;48.71;95940.14;647887;216;32062;-75
2022/07/06 10:06:09;;;;;;;1.75;1.65;;;28.60;1.40;;;31.34;51.99;95943.20;646375;216;31990;-76
2022/07/06 10:08:51;;;;;;;2.25;2.05;;;27.90;1.40;;;33.17;48.90;95936.14;647538;216;31588;-75
2022/07/06 10:11:32;;;;;;;1.67;1.58;;;29.60;1.40;;;32.82;45.32;95943.70;647113;216;31548;-75
2022/07/06 10:14:18;;;;;;;1.40;1.40;;;28.90;1.40;;;31.36;45.14;95939.38;618384;226;42961;-75
2022/07/06 10:17:00;;;;;;;2.60;1.90;;;28.00;1.40;;;31.92;46.89;95936.31;646923;216;42215;-75
2022/07/06 10:19:41;;;;;;;2.50;2.30;;;28.60;1.40;;;31.51;47.04;95940.44;647871;216;31531;-76
2022/07/06 10:22:23;;;;;;;1.40;1.30;;;27.00;1.40;;;28.98;48.73;95946.23;645346;216;31699;-74
2022/07/06 10:25:05;;;;;;;1.70;1.40;;;26.00;1.40;;;29.56;49.18;95940.45;646721;212;32273;-76
2022/07/06 10:27:47;;;;;;;1.70;1.60;;;27.90;1.40;;;30.64;47.67;95935.03;619587;222;31955;-76
2022/07/06 10:30:28;;;;;;;1.52;1.42;;;28.80;1.40;;;29.51;48.31;95938.63;646894;216;31594;-75
2022/07/06 10:38:36;;;;;;;1.60;1.50;;;28.40;1.40;;;28.70;49.78;95937.91;630978;220;31792;-76
2022/07/06 10:41:19;;;;;;;1.80;1.70;;;26.50;1.40;;;30.63;47.69;95929.86;646655;216;32201;-76
2022/07/06 10:44:00;;;;;;;5.50;1.93;;;28.60;1.40;;;31.03;44.92;95929.78;642730;217;32144;-76
2022/07/06 10:46:59;;;;;;;1.67;1.58;;;28.70;1.40;;;29.75;45.18;95937.76;618970;225;31850;-76
2022/07/06 10:49:40;;;;;;;2.72;1.90;;;27.00;1.40;;;30.95;47.10;95929.52;646343;216;31520;-76
2022/07/06 10:52:22;;;;;;;2.60;1.50;;;28.10;1.40;;;32.40;42.31;95927.17;644834;212;32223;-77
2022/07/06 10:55:07;;;;;;;1.70;1.60;;;28.90;1.40;;;33.83;41.43;95923.64;631883;222;31833;-77
2022/07/06 10:57:52;;;;;;;1.55;1.45;;;30.20;1.40;;;33.39;40.86;95918.70;647304;216;37031;-76
2022/07/06 11:00:50;;;;;;;1.87;1.70;;;30.00;1.40;;;33.61;41.97;95918.73;619739;226;31984;-75
2022/07/06 11:03:51;;;;;;;1.95;1.70;;;29.20;1.40;;;34.78;40.53;95917.48;648275;216;32148;-78
2022/07/06 11:06:37;;;;;;;3.00;1.50;;;30.20;1.40;;;32.00;41.29;95919.08;646706;216;31504;-75
2022/07/06 11:09:25;;;;;;;1.85;1.65;;;27.40;1.40;;;28.98;45.95;95931.95;645781;216;31723;-76
2022/07/06 11:12:18;;;;;;;3.78;2.00;;;25.80;1.40;;;28.99;48.35;95936.48;647616;216;31763;-76
2022/07/06 11:15:06;;;;;;;1.90;1.70;;;25.90;1.40;;;28.54;46.84;95934.00;647131;216;31718;-77
2022/07/06 11:18:10;;;;;;;1.95;1.85;;;26.10;1.40;;;28.90;46.78;95931.02;646411;212;32172;-77
2022/07/06 11:21:07;;;;;;;1.80;1.70;;;26.50;1.40;;;29.34;49.44;95925.28;647530;216;31763;-77
2022/07/06 11:23:49;;;;;;;2.10;1.80;;;26.80;1.40;;;28.62;48.63;95923.09;646898;216;42611;-76
2022/07/06 11:26:37;;;;;;;2.30;1.40;;;26.10;1.40;;;27.65;48.80;95924.80;646148;216;31514;-75
2022/07/06 11:29:24;;;;;;;3.80;1.40;;;25.20;1.40;;;26.74;53.38;95927.53;646228;216;31523;-76
2022/07/06 11:36:19;;;;;;;1.50;1.40;;;26.10;1.40;;;28.33;51.45;95917.52;646527;216;31730;-76
2022/07/06 11:39:07;;;;;;;1.40;1.30;;;26.30;1.40;;;27.71;51.98;95919.34;646371;212;31581;-73
2022/07/06 11:41:48;;;;;;;1.60;1.50;;;26.50;1.40;;;29.31;50.98;95910.00;647189;212;31523;-74
2022/07/06 11:44:30;;;;;;;1.50;1.33;;;27.70;1.40;;;28.25;49.45;95907.50;646725;212;31542;-75
2022/07/06 11:47:12;;;;;;;2.87;1.40;;;26.50;1.40;;;27.46;49.93;95911.63;647223;212;31553;-74
2022/07/06 11:49:54;;;;;;;2.50;1.50;;;25.10;1.40;;;25.94;52.22;95917.27;619430;225;32047;-74
2022/07/06 11:52:35;;;;;;;1.90;1.50;;;24.10;1.40;;;26.69;51.94;95910.82;618262;222;31999;-74
2022/07/06 11:55:17;;;;;;;2.05;1.60;;;25.60;1.40;;;28.34;51.15;95901.12;646210;212;31605;-75
2022/07/06 11:57:59;;;;;;;1.60;1.50;;;27.20;1.40;;;28.90;49.96;95896.43;646690;216;31552;-75
2022/07/06 12:00:46;;;;;;;2.33;1.60;;;26.80;1.40;;;27.57;50.67;95901.73;646925;216;31499;-76
2022/07/06 12:03:28;;;;;;;1.50;1.40;;;25.60;1.40;;;27.33;51.56;95902.06;647141;216;31551;-76
2022/07/06 12:06:24;;;;;;;1.62;1.15;;;25.90;1.40;;;30.15;44.73;95891.36;647555;216;31690;-79
2022/07/06 12:09:08;;;;;;;1.40;1.30;;;27.30;1.40;;;31.34;45.84;95889.55;647637;216;31545;-76
2022/07/06 12:11:50;;;;;;;2.40;1.15;;;28.20;1.40;;;30.92;42.82;95879.99;646326;212;31698;-76